sensor_id;sensor_type;location;lat;lon;timestamp;pressure;altitude;pressure_sealevel;temperature;humidity
51439;BME280;38816;51.142;-0.974;2024-01-15T00:00:24;99566.19;;;0.67;100.00
51439;BME280;38816;51.142;-0.974;2024-01-15T00:02:49;99564.59;;;0.50;100.00
51439;BME280;38816;51.142;-0.974;2024-01-15T00:05:15;99562.56;;;0.43;100.00
51439;BME280;38816;51.142;-0.974;2024-01-15T00:07:40;99567.38;;;0.37;100.00
51439;BME280;38816;51.142;-0.974;2024-01-15T00:10:06;99562.81;;;0.30;100.00
51439;BME280;38816;51.142;-0.974;2024-01-15T00:12:31;99556.69;;;0.24;100.00
51439;BME280;38816;51.142;-0.974;2024-01-15T00:14:57;99558.03;;;0.18;100.00
51439;BME280;38816;51.142;-0.974;2024-01-15T00:17:22;99555.31;;;0.13;100.00
51439;BME280;38816;51.142;-0.974;2024-01-15T00:19:48;99552.66;;;0.10;100.00
51439;BME280;38816;51.142;-0.974;2024-01-15T00:22:13;99549.97;;;0.07;100.00
51439;BME280;38816;51.142;-0.974;2024-01-15T00:24:39;99548.91;;;0.02;100.00
51439;BME280;38816;51.142;-0.974;2024-01-15T00:27:04;99536.00;;;-0.04;100.00
51439;BME280;38816;51.142;-0.974;2024-01-15T00:29:31;99539.44;;;-0.02;100.00
51439;BME280;38816;51.142;-0.974;2024-01-15T00:31:56;99540.94;;;-0.06;100.00
51439;BME280;38816;51.142;-0.974;2024-01-15T00:34:22;99539.06;;;-0.10;100.00
51439;BME280;38816;51.142;-0.974;2024-01-15T00:36:47;99533.03;;;-0.13;100.00
51439;BME280;38816;51.142;-0.974;2024-01-15T00:39:13;99523.25;;;-0.23;100.00
51439;BME280;38816;51.142;-0.974;2024-01-15T00:41:41;99532.13;;;-0.32;100.00
51439;BME280;38816;51.142;-0.974;2024-01-15T00:44:07;99529.09;;;-0.42;100.00
51439;BME280;38816;51.142;-0.974;2024-01-15T00:46:33;99531.81;;;-0.56;100.00
51439;BME280;38816;51.142;-0.974;2024-01-15T00:48:58;99532.22;;;-0.64;100.00
51439;BME280;38816;51.142;-0.974;2024-01-15T00:51:27;99528.44;;;-0.72;100.00
51439;BME280;38816;51.142;-0.974;2024-01-15T00:53:52;99525.63;;;-0.79;100.00
51439;BME280;38816;51.142;-0.974;2024-01-15T00:56:17;99527.88;;;-0.85;100.00
51439;BME280;38816;51.142;-0.974;2024-01-15T00:58:46;99532.75;;;-0.88;100.00
51439;BME280;38816;51.142;-0.974;2024-01-15T01:01:11;99525.66;;;-0.95;100.00
51439;BME280;38816;51.142;-0.974;2024-01-15T01:03:37;99527.72;;;-1.04;100.00
51439;BME280;38816;51.142;-0.974;2024-01-15T01:06:02;99521.56;;;-1.09;100.00
51439;BME280;38816;51.142;-0.974;2024-01-15T01:08:31;99527.34;;;-1.12;100.00
51439;BME280;38816;51.142;-0.974;2024-01-15T01:10:56;99516.41;;;-1.12;100.00
51439;BME280;38816;51.142;-0.974;2024-01-15T01:13:22;99520.97;;;-1.21;100.00
51439;BME280;38816;51.142;-0.974;2024-01-15T01:15:48;99520.56;;;-1.29;100.00
51439;BME280;38816;51.142;-0.974;2024-01-15T01:18:13;99510.41;;;-1.31;100.00
51439;BME280;38816;51.142;-0.974;2024-01-15T01:20:39;99512.84;;;-1.32;100.00
51439;BME280;38816;51.142;-0.974;2024-01-15T01:23:04;99507.00;;;-1.31;100.00
51439;BME280;38816;51.142;-0.974;2024-01-15T01:25:30;99496.38;;;-1.25;100.00
51439;BME280;38816;51.142;-0.974;2024-01-15T01:27:55;99497.38;;;-1.22;100.00
51439;BME280;38816;51.142;-0.974;2024-01-15T01:30:21;99489.28;;;-1.16;100.00
51439;BME280;38816;51.142;-0.974;2024-01-15T01:32:46;99484.38;;;-1.13;100.00
51439;BME280;38816;51.142;-0.974;2024-01-15T01:35:12;99491.25;;;-1.11;100.00
51439;BME280;38816;51.142;-0.974;2024-01-15T01:37:38;99487.53;;;-1.17;100.00
51439;BME280;38816;51.142;-0.974;2024-01-15T01:40:04;99487.16;;;-1.25;100.00
51439;BME280;38816;51.142;-0.974;2024-01-15T01:42:30;99481.03;;;-1.30;100.00
51439;BME280;38816;51.142;-0.974;2024-01-15T01:44:56;99487.28;;;-1.22;100.00
51439;BME280;38816;51.142;-0.974;2024-01-15T01:47:21;99479.59;;;-1.25;100.00
51439;BME280;38816;51.142;-0.974;2024-01-15T01:49:47;99489.28;;;-1.16;100.00
51439;BME280;38816;51.142;-0.974;2024-01-15T01:52:13;99490.84;;;-1.02;100.00
51439;BME280;38816;51.142;-0.974;2024-01-15T01:54:39;99478.09;;;-0.87;100.00
51439;BME280;38816;51.142;-0.974;2024-01-15T01:57:05;99497.03;;;-0.79;100.00
51439;BME280;38816;51.142;-0.974;2024-01-15T01:59:33;99488.97;;;-0.72;100.00
51439;BME280;38816;51.142;-0.974;2024-01-15T02:02:00;99480.03;;;-0.65;100.00
51439;BME280;38816;51.142;-0.974;2024-01-15T02:04:26;99483.63;;;-0.60;100.00
51439;BME280;38816;51.142;-0.974;2024-01-15T02:06:54;99468.94;;;-0.51;100.00
51439;BME280;38816;51.142;-0.974;2024-01-15T02:09:20;99474.63;;;-0.37;100.00
51439;BME280;38816;51.142;-0.974;2024-01-15T02:11:49;99470.88;;;-0.28;100.00
51439;BME280;38816;51.142;-0.974;2024-01-15T02:14:14;99471.25;;;-0.20;100.00
51439;BME280;38816;51.142;-0.974;2024-01-15T02:16:40;99470.00;;;-0.10;100.00
51439;BME280;38816;51.142;-0.974;2024-01-15T02:19:06;99475.56;;;0.01;100.00
51439;BME280;38816;51.142;-0.974;2024-01-15T02:21:32;99474.22;;;0.09;100.00
51439;BME280;38816;51.142;-0.974;2024-01-15T02:23:58;99474.53;;;0.15;100.00
51439;BME280;38816;51.142;-0.974;2024-01-15T02:26:24;99477.97;;;0.17;100.00
51439;BME280;38816;51.142;-0.974;2024-01-15T02:28:50;99478.13;;;0.20;100.00
51439;BME280;38816;51.142;-0.974;2024-01-15T02:31:16;99478.84;;;0.17;100.00
51439;BME280;38816;51.142;-0.974;2024-01-15T02:33:43;99472.91;;;0.17;100.00
51439;BME280;38816;51.142;-0.974;2024-01-15T02:36:10;99480.59;;;0.18;100.00
51439;BME280;38816;51.142;-0.974;2024-01-15T02:38:35;99477.16;;;0.18;100.00
51439;BME280;38816;51.142;-0.974;2024-01-15T02:41:01;99488.19;;;0.18;100.00
51439;BME280;38816;51.142;-0.974;2024-01-15T02:43:29;99476.41;;;0.19;100.00
51439;BME280;38816;51.142;-0.974;2024-01-15T02:45:55;99479.78;;;0.19;100.00
51439;BME280;38816;51.142;-0.974;2024-01-15T02:48:21;99473.94;;;0.20;100.00
51439;BME280;38816;51.142;-0.974;2024-01-15T02:50:46;99470.59;;;0.21;100.00
51439;BME280;38816;51.142;-0.974;2024-01-15T02:53:15;99478.69;;;0.32;100.00
51439;BME280;38816;51.142;-0.974;2024-01-15T02:55:40;99474.69;;;0.37;100.00
51439;BME280;38816;51.142;-0.974;2024-01-15T02:58:07;99479.09;;;0.41;100.00
51439;BME280;38816;51.142;-0.974;2024-01-15T03:00:32;99472.41;;;0.43;100.00
51439;BME280;38816;51.142;-0.974;2024-01-15T03:02:58;99464.13;;;0.46;100.00
51439;BME280;38816;51.142;-0.974;2024-01-15T03:05:23;99461.78;;;0.50;100.00
51439;BME280;38816;51.142;-0.974;2024-01-15T03:07:49;99464.22;;;0.49;100.00
51439;BME280;38816;51.142;-0.974;2024-01-15T03:10:14;99460.19;;;0.53;100.00
51439;BME280;38816;51.142;-0.974;2024-01-15T03:12:39;99464.44;;;0.54;100.00
51439;BME280;38816;51.142;-0.974;2024-01-15T03:15:05;99459.38;;;0.54;100.00
51439;BME280;38816;51.142;-0.974;2024-01-15T03:17:31;99474.53;;;0.54;100.00
51439;BME280;38816;51.142;-0.974;2024-01-15T03:19:57;99466.03;;;0.52;100.00
51439;BME280;38816;51.142;-0.974;2024-01-15T03:22:22;99464.22;;;0.49;100.00
51439;BME280;38816;51.142;-0.974;2024-01-15T03:24:50;99469.22;;;0.47;100.00
51439;BME280;38816;51.142;-0.974;2024-01-15T03:27:16;99475.16;;;0.48;100.00
51439;BME280;38816;51.142;-0.974;2024-01-15T03:29:41;99473.38;;;0.45;100.00
51439;BME280;38816;51.142;-0.974;2024-01-15T03:32:07;99470.56;;;0.39;100.00
51439;BME280;38816;51.142;-0.974;2024-01-15T03:34:32;99480.25;;;0.30;100.00
51439;BME280;38816;51.142;-0.974;2024-01-15T03:36:58;99473.00;;;0.18;100.00
51439;BME280;38816;51.142;-0.974;2024-01-15T03:39:24;99484.34;;;0.09;100.00
51439;BME280;38816;51.142;-0.974;2024-01-15T03:41:50;99479.88;;;0.03;100.00
51439;BME280;38816;51.142;-0.974;2024-01-15T03:44:16;99475.34;;;-0.04;100.00
51439;BME280;38816;51.142;-0.974;2024-01-15T03:46:41;99482.78;;;-0.07;100.00
51439;BME280;38816;51.142;-0.974;2024-01-15T03:49:07;99493.16;;;-0.01;100.00
51439;BME280;38816;51.142;-0.974;2024-01-15T03:51:32;99485.72;;;0.02;100.00
51439;BME280;38816;51.142;-0.974;2024-01-15T03:53:58;99485.09;;;0.06;100.00
51439;BME280;38816;51.142;-0.974;2024-01-15T03:56:23;99483.56;;;0.10;100.00
51439;BME280;38816;51.142;-0.974;2024-01-15T03:58:49;99481.25;;;0.14;100.00
51439;BME280;38816;51.142;-0.974;2024-01-15T04:01:14;99474.53;;;0.15;100.00
51439;BME280;38816;51.142;-0.974;2024-01-15T04:03:40;99480.44;;;0.15;100.00
51439;BME280;38816;51.142;-0.974;2024-01-15T04:06:08;99475.59;;;0.20;100.00
51439;BME280;38816;51.142;-0.974;2024-01-15T04:08:33;99477.53;;;0.25;100.00
51439;BME280;38816;51.142;-0.974;2024-01-15T04:10:59;99470.75;;;0.24;100.00
51439;BME280;38816;51.142;-0.974;2024-01-15T04:13:24;99475.84;;;0.26;100.00
51439;BME280;38816;51.142;-0.974;2024-01-15T04:15:50;99468.38;;;0.28;100.00
51439;BME280;38816;51.142;-0.974;2024-01-15T04:18:16;99466.69;;;0.28;100.00
51439;BME280;38816;51.142;-0.974;2024-01-15T04:20:41;99464.97;;;0.27;100.00
51439;BME280;38816;51.142;-0.974;2024-01-15T04:23:07;99465.84;;;0.28;100.00
51439;BME280;38816;51.142;-0.974;2024-01-15T04:25:32;99458.09;;;0.24;100.00
51439;BME280;38816;51.142;-0.974;2024-01-15T04:27:58;99465.53;;;0.21;100.00
51439;BME280;38816;51.142;-0.974;2024-01-15T04:30:27;99461.25;;;0.19;100.00
51439;BME280;38816;51.142;-0.974;2024-01-15T04:32:52;99454.22;;;0.13;100.00
51439;BME280;38816;51.142;-0.974;2024-01-15T04:35:18;99448.09;;;0.08;100.00
51439;BME280;38816;51.142;-0.974;2024-01-15T04:37:43;99452.22;;;0.06;100.00
51439;BME280;38816;51.142;-0.974;2024-01-15T04:40:09;99453.91;;;0.06;100.00
51439;BME280;38816;51.142;-0.974;2024-01-15T04:42:35;99445.50;;;0.07;100.00
51439;BME280;38816;51.142;-0.974;2024-01-15T04:45:00;99442.28;;;0.09;100.00
51439;BME280;38816;51.142;-0.974;2024-01-15T04:47:34;99435.56;;;0.10;100.00
51439;BME280;38816;51.142;-0.974;2024-01-15T04:50:02;99425.72;;;0.16;100.00
51439;BME280;38816;51.142;-0.974;2024-01-15T04:52:28;99427.53;;;0.18;100.00
51439;BME280;38816;51.142;-0.974;2024-01-15T04:54:53;99438.69;;;0.23;100.00
51439;BME280;38816;51.142;-0.974;2024-01-15T04:57:19;99436.22;;;0.25;100.00
51439;BME280;38816;51.142;-0.974;2024-01-15T04:59:44;99423.59;;;0.25;100.00
51439;BME280;38816;51.142;-0.974;2024-01-15T05:02:10;99424.53;;;0.27;100.00
51439;BME280;38816;51.142;-0.974;2024-01-15T05:04:35;99423.94;;;0.33;100.00
51439;BME280;38816;51.142;-0.974;2024-01-15T05:07:01;99428.25;;;0.35;100.00
51439;BME280;38816;51.142;-0.974;2024-01-15T05:09:26;99430.84;;;0.37;100.00
51439;BME280;38816;51.142;-0.974;2024-01-15T05:11:51;99434.28;;;0.39;100.00
51439;BME280;38816;51.142;-0.974;2024-01-15T05:14:17;99433.50;;;0.40;100.00
51439;BME280;38816;51.142;-0.974;2024-01-15T05:16:49;99431.72;;;0.37;100.00
51439;BME280;38816;51.142;-0.974;2024-01-15T05:19:15;99427.66;;;0.41;100.00
51439;BME280;38816;51.142;-0.974;2024-01-15T05:21:41;99435.09;;;0.38;100.00
51439;BME280;38816;51.142;-0.974;2024-01-15T05:24:07;99436.16;;;0.43;100.00
51439;BME280;38816;51.142;-0.974;2024-01-15T05:26:33;99440.22;;;0.39;100.00
51439;BME280;38816;51.142;-0.974;2024-01-15T05:28:59;99435.72;;;0.32;100.00
51439;BME280;38816;51.142;-0.974;2024-01-15T05:31:24;99445.63;;;0.28;100.00
51439;BME280;38816;51.142;-0.974;2024-01-15T05:33:50;99437.69;;;0.20;100.00
51439;BME280;38816;51.142;-0.974;2024-01-15T05:36:15;99434.81;;;0.12;100.00
51439;BME280;38816;51.142;-0.974;2024-01-15T05:38:41;99433.69;;;0.06;100.00
51439;BME280;38816;51.142;-0.974;2024-01-15T05:41:06;99434.34;;;0.02;100.00
51439;BME280;38816;51.142;-0.974;2024-01-15T05:43:32;99445.09;;;-0.03;100.00
51439;BME280;38816;51.142;-0.974;2024-01-15T05:45:58;99445.69;;;-0.08;100.00
51439;BME280;38816;51.142;-0.974;2024-01-15T05:48:23;99447.16;;;-0.13;100.00
51439;BME280;38816;51.142;-0.974;2024-01-15T05:50:48;99455.16;;;-0.22;100.00
51439;BME280;38816;51.142;-0.974;2024-01-15T05:53:14;99453.06;;;-0.31;100.00
51439;BME280;38816;51.142;-0.974;2024-01-15T05:55:40;99441.75;;;-0.39;100.00
51439;BME280;38816;51.142;-0.974;2024-01-15T05:58:05;99449.16;;;-0.42;100.00
51439;BME280;38816;51.142;-0.974;2024-01-15T06:00:31;99455.66;;;-0.47;100.00
51439;BME280;38816;51.142;-0.974;2024-01-15T06:02:58;99461.66;;;-0.45;100.00
51439;BME280;38816;51.142;-0.974;2024-01-15T06:05:24;99463.28;;;-0.45;100.00
51439;BME280;38816;51.142;-0.974;2024-01-15T06:07:50;99462.53;;;-0.44;100.00
51439;BME280;38816;51.142;-0.974;2024-01-15T06:10:15;99464.19;;;-0.45;100.00
51439;BME280;38816;51.142;-0.974;2024-01-15T06:12:43;99470.88;;;-0.45;100.00
51439;BME280;38816;51.142;-0.974;2024-01-15T06:15:09;99473.13;;;-0.52;100.00
51439;BME280;38816;51.142;-0.974;2024-01-15T06:17:34;99471.97;;;-0.58;100.00
51439;BME280;38816;51.142;-0.974;2024-01-15T06:20:00;99470.94;;;-0.62;100.00
51439;BME280;38816;51.142;-0.974;2024-01-15T06:22:25;99473.38;;;-0.63;100.00
51439;BME280;38816;51.142;-0.974;2024-01-15T06:24:51;99482.78;;;-0.61;100.00
51439;BME280;38816;51.142;-0.974;2024-01-15T06:27:16;99478.09;;;-0.53;100.00
51439;BME280;38816;51.142;-0.974;2024-01-15T06:29:45;99479.59;;;-0.57;100.00
51439;BME280;38816;51.142;-0.974;2024-01-15T06:32:12;99486.53;;;-0.53;100.00
51439;BME280;38816;51.142;-0.974;2024-01-15T06:34:37;99490.19;;;-0.46;100.00
51439;BME280;38816;51.142;-0.974;2024-01-15T06:37:03;99497.00;;;-0.45;100.00
51439;BME280;38816;51.142;-0.974;2024-01-15T06:39:29;99493.09;;;-0.38;100.00
51439;BME280;38816;51.142;-0.974;2024-01-15T06:41:54;99488.91;;;-0.38;100.00
51439;BME280;38816;51.142;-0.974;2024-01-15T06:44:20;99485.38;;;-0.41;100.00
51439;BME280;38816;51.142;-0.974;2024-01-15T06:46:47;99493.69;;;-0.44;100.00
51439;BME280;38816;51.142;-0.974;2024-01-15T06:49:13;99495.63;;;-0.56;100.00
51439;BME280;38816;51.142;-0.974;2024-01-15T06:51:39;99499.06;;;-0.54;100.00
51439;BME280;38816;51.142;-0.974;2024-01-15T06:54:05;99493.47;;;-0.48;100.00
51439;BME280;38816;51.142;-0.974;2024-01-15T06:56:31;99504.13;;;-0.54;100.00
51439;BME280;38816;51.142;-0.974;2024-01-15T06:58:57;99506.41;;;-0.59;100.00
51439;BME280;38816;51.142;-0.974;2024-01-15T07:01:22;99499.50;;;-0.63;100.00
51439;BME280;38816;51.142;-0.974;2024-01-15T07:03:47;99489.09;;;-0.69;100.00
51439;BME280;38816;51.142;-0.974;2024-01-15T07:06:13;99485.25;;;-0.79;100.00
51439;BME280;38816;51.142;-0.974;2024-01-15T07:08:39;99478.75;;;-0.91;100.00
51439;BME280;38816;51.142;-0.974;2024-01-15T07:11:05;99483.09;;;-1.05;100.00
51439;BME280;38816;51.142;-0.974;2024-01-15T07:13:32;99487.13;;;-1.09;100.00
51439;BME280;38816;51.142;-0.974;2024-01-15T07:15:57;99496.22;;;-1.12;100.00
51439;BME280;38816;51.142;-0.974;2024-01-15T07:18:23;99484.06;;;-1.19;100.00
51439;BME280;38816;51.142;-0.974;2024-01-15T07:20:49;99491.47;;;-1.22;100.00
51439;BME280;38816;51.142;-0.974;2024-01-15T07:23:14;99482.13;;;-1.25;100.00
51439;BME280;38816;51.142;-0.974;2024-01-15T07:25:40;99495.03;;;-1.19;100.00
51439;BME280;38816;51.142;-0.974;2024-01-15T07:28:05;99493.13;;;-1.23;100.00
51439;BME280;38816;51.142;-0.974;2024-01-15T07:30:31;99486.28;;;-1.25;100.00
51439;BME280;38816;51.142;-0.974;2024-01-15T07:32:56;99485.34;;;-1.28;100.00
51439;BME280;38816;51.142;-0.974;2024-01-15T07:35:22;99490.25;;;-1.31;100.00
51439;BME280;38816;51.142;-0.974;2024-01-15T07:37:47;99489.03;;;-1.37;100.00
51439;BME280;38816;51.142;-0.974;2024-01-15T07:40:13;99488.63;;;-1.45;100.00
51439;BME280;38816;51.142;-0.974;2024-01-15T07:42:39;99494.16;;;-1.52;100.00
51439;BME280;38816;51.142;-0.974;2024-01-15T07:45:05;99507.72;;;-1.50;100.00
51439;BME280;38816;51.142;-0.974;2024-01-15T07:47:31;99510.84;;;-1.54;100.00
51439;BME280;38816;51.142;-0.974;2024-01-15T07:49:57;99508.09;;;-1.59;100.00
51439;BME280;38816;51.142;-0.974;2024-01-15T07:52:22;99512.59;;;-1.53;100.00
51439;BME280;38816;51.142;-0.974;2024-01-15T07:54:48;99513.28;;;-1.56;100.00
51439;BME280;38816;51.142;-0.974;2024-01-15T07:57:13;99513.69;;;-1.64;100.00
51439;BME280;38816;51.142;-0.974;2024-01-15T07:59:39;99523.59;;;-1.67;100.00
51439;BME280;38816;51.142;-0.974;2024-01-15T08:02:05;99522.34;;;-1.75;100.00
51439;BME280;38816;51.142;-0.974;2024-01-15T08:04:31;99523.97;;;-1.76;100.00
51439;BME280;38816;51.142;-0.974;2024-01-15T08:06:56;99521.19;;;-1.81;100.00
51439;BME280;38816;51.142;-0.974;2024-01-15T08:09:22;99512.00;;;-1.80;100.00
51439;BME280;38816;51.142;-0.974;2024-01-15T08:11:48;99526.09;;;-1.84;100.00
51439;BME280;38816;51.142;-0.974;2024-01-15T08:14:15;99523.22;;;-1.90;100.00
51439;BME280;38816;51.142;-0.974;2024-01-15T08:16:40;99528.44;;;-1.87;100.00
51439;BME280;38816;51.142;-0.974;2024-01-15T08:19:06;99535.13;;;-1.87;100.00
51439;BME280;38816;51.142;-0.974;2024-01-15T08:21:32;99542.63;;;-1.89;100.00
51439;BME280;38816;51.142;-0.974;2024-01-15T08:23:58;99553.56;;;-1.88;100.00
51439;BME280;38816;51.142;-0.974;2024-01-15T08:26:24;99555.34;;;-1.86;100.00
51439;BME280;38816;51.142;-0.974;2024-01-15T08:28:50;99555.09;;;-1.90;100.00
51439;BME280;38816;51.142;-0.974;2024-01-15T08:31:15;99549.44;;;-1.86;100.00
51439;BME280;38816;51.142;-0.974;2024-01-15T08:33:41;99556.94;;;-1.88;100.00
51439;BME280;38816;51.142;-0.974;2024-01-15T08:36:06;99559.53;;;-1.86;100.00
51439;BME280;38816;51.142;-0.974;2024-01-15T08:38:32;99561.88;;;-1.89;100.00
51439;BME280;38816;51.142;-0.974;2024-01-15T08:40:57;99566.75;;;-1.92;100.00
51439;BME280;38816;51.142;-0.974;2024-01-15T08:43:26;99572.66;;;-1.92;100.00
51439;BME280;38816;51.142;-0.974;2024-01-15T08:45:52;99575.97;;;-1.93;100.00
51439;BME280;38816;51.142;-0.974;2024-01-15T08:48:18;99572.84;;;-1.89;100.00
51439;BME280;38816;51.142;-0.974;2024-01-15T08:50:43;99567.81;;;-1.89;100.00
51439;BME280;38816;51.142;-0.974;2024-01-15T08:53:11;99574.88;;;-1.82;100.00
51439;BME280;38816;51.142;-0.974;2024-01-15T08:55:37;99581.91;;;-1.76;100.00
51439;BME280;38816;51.142;-0.974;2024-01-15T08:58:03;99576.25;;;-1.72;100.00
51439;BME280;38816;51.142;-0.974;2024-01-15T09:00:29;99583.38;;;-1.65;100.00
51439;BME280;38816;51.142;-0.974;2024-01-15T09:02:55;99574.94;;;-1.65;100.00
51439;BME280;38816;51.142;-0.974;2024-01-15T09:05:22;99585.81;;;-1.66;100.00
51439;BME280;38816;51.142;-0.974;2024-01-15T09:07:47;99585.66;;;-1.69;100.00
51439;BME280;38816;51.142;-0.974;2024-01-15T09:10:13;99595.00;;;-1.67;100.00
51439;BME280;38816;51.142;-0.974;2024-01-15T09:12:39;99596.28;;;-1.59;100.00
51439;BME280;38816;51.142;-0.974;2024-01-15T09:15:05;99599.84;;;-1.55;100.00
51439;BME280;38816;51.142;-0.974;2024-01-15T09:17:31;99604.75;;;-1.42;100.00
51439;BME280;38816;51.142;-0.974;2024-01-15T09:19:57;99615.50;;;-1.30;100.00
51439;BME280;38816;51.142;-0.974;2024-01-15T09:22:22;99602.66;;;-1.18;100.00
51439;BME280;38816;51.142;-0.974;2024-01-15T09:24:48;99592.59;;;-1.02;100.00
51439;BME280;38816;51.142;-0.974;2024-01-15T09:27:14;99591.00;;;-0.83;100.00
51439;BME280;38816;51.142;-0.974;2024-01-15T09:29:39;99583.97;;;-0.72;100.00
51439;BME280;38816;51.142;-0.974;2024-01-15T09:32:10;99583.03;;;-0.58;100.00
51439;BME280;38816;51.142;-0.974;2024-01-15T09:34:36;99588.53;;;-0.49;100.00
51439;BME280;38816;51.142;-0.974;2024-01-15T09:37:05;99585.84;;;-0.52;100.00
51439;BME280;38816;51.142;-0.974;2024-01-15T09:39:30;99586.72;;;-0.52;100.00
51439;BME280;38816;51.142;-0.974;2024-01-15T09:41:57;99594.16;;;-0.37;100.00
51439;BME280;38816;51.142;-0.974;2024-01-15T09:44:23;99586.06;;;-0.31;100.00
51439;BME280;38816;51.142;-0.974;2024-01-15T09:46:49;99587.81;;;-0.12;100.00
51439;BME280;38816;51.142;-0.974;2024-01-15T09:49:17;99589.59;;;-0.10;100.00
51439;BME280;38816;51.142;-0.974;2024-01-15T09:51:43;99591.06;;;0.03;100.00
51439;BME280;38816;51.142;-0.974;2024-01-15T09:54:09;99602.34;;;0.10;100.00
51439;BME280;38816;51.142;-0.974;2024-01-15T09:56:35;99602.47;;;0.13;100.00
51439;BME280;38816;51.142;-0.974;2024-01-15T09:59:01;99602.59;;;0.16;100.00
51439;BME280;38816;51.142;-0.974;2024-01-15T10:01:28;99598.03;;;0.27;100.00
51439;BME280;38816;51.142;-0.974;2024-01-15T10:03:55;99605.41;;;0.40;100.00
51439;BME280;38816;51.142;-0.974;2024-01-15T10:06:24;99595.81;;;0.33;100.00
51439;BME280;38816;51.142;-0.974;2024-01-15T10:08:53;99610.69;;;0.44;100.00
51439;BME280;38816;51.142;-0.974;2024-01-15T10:11:19;99608.34;;;0.49;100.00
51439;BME280;38816;51.142;-0.974;2024-01-15T10:13:45;99616.72;;;0.66;100.00
51439;BME280;38816;51.142;-0.974;2024-01-15T10:16:10;99615.16;;;0.87;100.00
51439;BME280;38816;51.142;-0.974;2024-01-15T10:18:36;99622.16;;;0.93;100.00
51439;BME280;38816;51.142;-0.974;2024-01-15T10:21:04;99629.09;;;0.97;100.00
51439;BME280;38816;51.142;-0.974;2024-01-15T10:23:32;99631.47;;;0.94;100.00
51439;BME280;38816;51.142;-0.974;2024-01-15T10:25:57;99632.28;;;0.93;100.00
51439;BME280;38816;51.142;-0.974;2024-01-15T10:28:26;99626.16;;;0.88;100.00
51439;BME280;38816;51.142;-0.974;2024-01-15T10:30:53;99628.69;;;0.88;100.00
51439;BME280;38816;51.142;-0.974;2024-01-15T10:33:22;99636.78;;;0.81;100.00
51439;BME280;38816;51.142;-0.974;2024-01-15T10:35:53;99642.94;;;0.86;100.00
51439;BME280;38816;51.142;-0.974;2024-01-15T10:38:20;99630.09;;;0.81;100.00
51439;BME280;38816;51.142;-0.974;2024-01-15T10:40:50;99636.00;;;0.82;100.00
51439;BME280;38816;51.142;-0.974;2024-01-15T10:43:16;99635.78;;;0.95;100.00
51439;BME280;38816;51.142;-0.974;2024-01-15T10:45:45;99634.16;;;0.97;100.00
51439;BME280;38816;51.142;-0.974;2024-01-15T10:48:10;99630.00;;;0.99;100.00
51439;BME280;38816;51.142;-0.974;2024-01-15T10:50:36;99630.56;;;1.11;100.00
51439;BME280;38816;51.142;-0.974;2024-01-15T10:53:02;99636.84;;;1.19;100.00
51439;BME280;38816;51.142;-0.974;2024-01-15T10:55:29;99643.03;;;1.07;100.00
51439;BME280;38816;51.142;-0.974;2024-01-15T10:57:57;99647.06;;;1.03;100.00
51439;BME280;38816;51.142;-0.974;2024-01-15T11:00:22;99637.91;;;1.05;100.00
51439;BME280;38816;51.142;-0.974;2024-01-15T11:02:48;99632.84;;;1.05;100.00
51439;BME280;38816;51.142;-0.974;2024-01-15T11:05:14;99628.44;;;1.01;100.00
51439;BME280;38816;51.142;-0.974;2024-01-15T11:07:40;99629.25;;;1.00;100.00
51439;BME280;38816;51.142;-0.974;2024-01-15T11:10:07;99620.78;;;0.99;100.00
51439;BME280;38816;51.142;-0.974;2024-01-15T11:12:35;99636.03;;;1.01;100.00
51439;BME280;38816;51.142;-0.974;2024-01-15T11:15:03;99641.25;;;1.04;100.00
51439;BME280;38816;51.142;-0.974;2024-01-15T11:18:00;99646.00;;;0.98;100.00
51439;BME280;38816;51.142;-0.974;2024-01-15T11:20:29;99641.09;;;1.01;100.00
51439;BME280;38816;51.142;-0.974;2024-01-15T11:22:56;99643.38;;;1.14;97.67
51439;BME280;38816;51.142;-0.974;2024-01-15T11:25:34;99630.25;;;1.23;96.97
51439;BME280;38816;51.142;-0.974;2024-01-15T11:28:02;99630.25;;;1.23;96.50
51439;BME280;38816;51.142;-0.974;2024-01-15T11:30:28;99629.84;;;1.33;94.58
51439;BME280;38816;51.142;-0.974;2024-01-15T11:32:53;99627.25;;;1.32;93.99
51439;BME280;38816;51.142;-0.974;2024-01-15T11:35:19;99627.25;;;1.32;95.15
51439;BME280;38816;51.142;-0.974;2024-01-15T11:42:58;99637.78;;;1.41;90.51
51439;BME280;38816;51.142;-0.974;2024-01-15T11:45:24;99636.44;;;1.49;82.95
51439;BME280;38816;51.142;-0.974;2024-01-15T11:48:15;99639.31;;;1.37;80.49
51439;BME280;38816;51.142;-0.974;2024-01-15T11:50:49;99637.50;;;1.35;79.56
51439;BME280;38816;51.142;-0.974;2024-01-15T11:55:58;99641.16;;;1.41;78.90
51439;BME280;38816;51.142;-0.974;2024-01-15T11:58:26;99637.78;;;1.41;77.44
51439;BME280;38816;51.142;-0.974;2024-01-15T12:00:52;99653.28;;;1.48;76.27
51439;BME280;38816;51.142;-0.974;2024-01-15T12:03:23;99638.28;;;1.53;73.41
51439;BME280;38816;51.142;-0.974;2024-01-15T12:05:48;99639.75;;;1.48;73.93
51439;BME280;38816;51.142;-0.974;2024-01-15T12:08:20;99649.22;;;1.52;72.24
51439;BME280;38816;51.142;-0.974;2024-01-15T12:10:46;99648.41;;;1.53;72.37
51439;BME280;38816;51.142;-0.974;2024-01-15T12:13:13;99661.88;;;1.52;71.06
51439;BME280;38816;51.142;-0.974;2024-01-15T12:15:40;99666.28;;;1.56;71.15
51439;BME280;38816;51.142;-0.974;2024-01-15T12:18:08;99666.13;;;1.53;71.23
51439;BME280;38816;51.142;-0.974;2024-01-15T12:20:34;99666.41;;;1.59;71.00
51439;BME280;38816;51.142;-0.974;2024-01-15T12:23:00;99670.63;;;1.59;70.58
51439;BME280;38816;51.142;-0.974;2024-01-15T12:25:26;99653.00;;;1.62;71.28
51439;BME280;38816;51.142;-0.974;2024-01-15T12:27:53;99647.53;;;1.52;67.91
51439;BME280;38816;51.142;-0.974;2024-01-15T12:30:19;99665.84;;;1.45;69.31
51439;BME280;38816;51.142;-0.974;2024-01-15T12:32:48;99653.91;;;1.62;68.84
51439;BME280;38816;51.142;-0.974;2024-01-15T12:35:17;99656.00;;;1.53;69.57
51439;BME280;38816;51.142;-0.974;2024-01-15T12:37:43;99645.88;;;1.53;69.09
51439;BME280;38816;51.142;-0.974;2024-01-15T12:40:10;99664.22;;;1.47;66.37
51439;BME280;38816;51.142;-0.974;2024-01-15T12:42:42;99659.28;;;1.50;66.49
51439;BME280;38816;51.142;-0.974;2024-01-15T12:45:09;99666.22;;;1.55;67.23
51439;BME280;38816;51.142;-0.974;2024-01-15T12:47:36;99665.22;;;1.51;68.57